sensor_id;sensor_type;location;lat;lon;timestamp;P1;durP1;ratioP1;P2;durP2;ratioP2
57375;SDS011;44805;45.048;5.062;2022-09-09T00:03:01;3.10;;;1.15;;
57375;SDS011;44805;45.048;5.062;2022-09-09T00:29:51;2.92;;;1.40;;
57375;SDS011;44805;45.048;5.062;2022-09-09T00:32:49;2.22;;;1.30;;
57375;SDS011;44805;45.048;5.062;2022-09-09T00:35:30;3.78;;;1.30;;
57375;SDS011;44805;45.048;5.062;2022-09-09T00:38:15;3.05;;;1.30;;
57375;SDS011;44805;45.048;5.062;2022-09-09T01:00:31;3.28;;;1.50;;
57375;SDS011;44805;45.048;5.062;2022-09-09T01:06:00;4.05;;;1.60;;
57375;SDS011;44805;45.048;5.062;2022-09-09T01:12:25;3.25;;;1.30;;
57375;SDS011;44805;45.048;5.062;2022-09-09T01:18:15;2.35;;;1.38;;
57375;SDS011;44805;45.048;5.062;2022-09-09T01:29:33;3.15;;;1.50;;
57375;SDS011;44805;45.048;5.062;2022-09-09T01:34:53;3.40;;;1.58;;
57375;SDS011;44805;45.048;5.062;2022-09-09T01:37:35;4.17;;;1.53;;
57375;SDS011;44805;45.048;5.062;2022-09-09T01:48:56;2.08;;;1.20;;
57375;SDS011;44805;45.048;5.062;2022-09-09T01:51:27;4.43;;;1.35;;
57375;SDS011;44805;45.048;5.062;2022-09-09T02:06:08;5.75;;;1.80;;
57375;SDS011;44805;45.048;5.062;2022-09-09T02:08:46;3.72;;;1.48;;
57375;SDS011;44805;45.048;5.062;2022-09-09T02:11:15;3.58;;;1.25;;
57375;SDS011;44805;45.048;5.062;2022-09-09T02:13:48;2.35;;;1.20;;
57375;SDS011;44805;45.048;5.062;2022-09-09T02:19:54;5.00;;;1.48;;
57375;SDS011;44805;45.048;5.062;2022-09-09T02:28:04;2.80;;;1.30;;
57375;SDS011;44805;45.048;5.062;2022-09-09T02:30:39;4.47;;;2.00;;
57375;SDS011;44805;45.048;5.062;2022-09-09T02:33:09;4.68;;;1.50;;
57375;SDS011;44805;45.048;5.062;2022-09-09T02:35:39;3.22;;;1.60;;
57375;SDS011;44805;45.048;5.062;2022-09-09T02:38:09;3.80;;;1.40;;
57375;SDS011;44805;45.048;5.062;2022-09-09T02:44:01;3.78;;;1.35;;
57375;SDS011;44805;45.048;5.062;2022-09-09T02:49:25;3.15;;;1.55;;
57375;SDS011;44805;45.048;5.062;2022-09-09T02:58:22;2.33;;;1.35;;
57375;SDS011;44805;45.048;5.062;2022-09-09T03:00:53;4.13;;;1.60;;
57375;SDS011;44805;45.048;5.062;2022-09-09T03:08:30;3.95;;;1.40;;
57375;SDS011;44805;45.048;5.062;2022-09-09T03:14:20;4.53;;;1.50;;
57375;SDS011;44805;45.048;5.062;2022-09-09T03:16:52;3.00;;;1.40;;
57375;SDS011;44805;45.048;5.062;2022-09-09T03:22:28;3.75;;;1.50;;
57375;SDS011;44805;45.048;5.062;2022-09-09T03:25:20;3.00;;;1.38;;
57375;SDS011;44805;45.048;5.062;2022-09-09T03:28:08;4.68;;;1.90;;
57375;SDS011;44805;45.048;5.062;2022-09-09T03:38:10;5.32;;;1.70;;
57375;SDS011;44805;45.048;5.062;2022-09-09T03:40:49;3.08;;;1.50;;
57375;SDS011;44805;45.048;5.062;2022-09-09T03:43:23;5.30;;;1.98;;
57375;SDS011;44805;45.048;5.062;2022-09-09T03:45:55;4.85;;;2.10;;
57375;SDS011;44805;45.048;5.062;2022-09-09T03:48:23;5.30;;;2.00;;
57375;SDS011;44805;45.048;5.062;2022-09-09T03:50:53;3.67;;;1.70;;
57375;SDS011;44805;45.048;5.062;2022-09-09T03:53:37;4.13;;;1.77;;
57375;SDS011;44805;45.048;5.062;2022-09-09T03:56:09;7.43;;;2.25;;
57375;SDS011;44805;45.048;5.062;2022-09-09T03:58:55;2.88;;;1.58;;
57375;SDS011;44805;45.048;5.062;2022-09-09T04:01:25;3.22;;;1.70;;
57375;SDS011;44805;45.048;5.062;2022-09-09T04:14:21;3.35;;;1.50;;
57375;SDS011;44805;45.048;5.062;2022-09-09T04:17:16;3.28;;;1.50;;
57375;SDS011;44805;45.048;5.062;2022-09-09T04:29:19;3.17;;;1.58;;
57375;SDS011;44805;45.048;5.062;2022-09-09T04:31:47;3.25;;;1.70;;
57375;SDS011;44805;45.048;5.062;2022-09-09T04:34:18;3.53;;;1.80;;
57375;SDS011;44805;45.048;5.062;2022-09-09T04:36:50;4.72;;;1.95;;
57375;SDS011;44805;45.048;5.062;2022-09-09T04:39:19;4.22;;;1.70;;
57375;SDS011;44805;45.048;5.062;2022-09-09T04:41:55;3.80;;;1.75;;
57375;SDS011;44805;45.048;5.062;2022-09-09T04:44:44;3.33;;;1.60;;
57375;SDS011;44805;45.048;5.062;2022-09-09T04:47:40;5.45;;;2.10;;
57375;SDS011;44805;45.048;5.062;2022-09-09T04:50:20;4.38;;;2.00;;
57375;SDS011;44805;45.048;5.062;2022-09-09T05:03:59;3.92;;;1.75;;
57375;SDS011;44805;45.048;5.062;2022-09-09T05:06:30;4.40;;;1.65;;
57375;SDS011;44805;45.048;5.062;2022-09-09T05:08:57;3.67;;;1.75;;
57375;SDS011;44805;45.048;5.062;2022-09-09T05:14:56;3.90;;;1.75;;
57375;SDS011;44805;45.048;5.062;2022-09-09T05:18:03;3.97;;;1.80;;
57375;SDS011;44805;45.048;5.062;2022-09-09T05:20:30;5.25;;;1.63;;
57375;SDS011;44805;45.048;5.062;2022-09-09T05:23:03;4.38;;;1.60;;
57375;SDS011;44805;45.048;5.062;2022-09-09T05:26:02;4.47;;;1.75;;
57375;SDS011;44805;45.048;5.062;2022-09-09T05:28:51;6.30;;;1.63;;
57375;SDS011;44805;45.048;5.062;2022-09-09T05:31:18;6.88;;;1.90;;
57375;SDS011;44805;45.048;5.062;2022-09-09T05:33:45;6.55;;;1.95;;
57375;SDS011;44805;45.048;5.062;2022-09-09T05:36:12;5.05;;;1.73;;
57375;SDS011;44805;45.048;5.062;2022-09-09T05:38:42;2.75;;;1.60;;
57375;SDS011;44805;45.048;5.062;2022-09-09T05:44:42;3.97;;;1.20;;
57375;SDS011;44805;45.048;5.062;2022-09-09T05:47:16;5.68;;;1.60;;
57375;SDS011;44805;45.048;5.062;2022-09-09T06:34:07;5.10;;;1.83;;
57375;SDS011;44805;45.048;5.062;2022-09-09T06:39:54;7.75;;;2.20;;
57375;SDS011;44805;45.048;5.062;2022-09-09T06:46:02;7.05;;;1.60;;
57375;SDS011;44805;45.048;5.062;2022-09-09T06:49:07;6.00;;;1.90;;
57375;SDS011;44805;45.048;5.062;2022-09-09T06:51:49;4.97;;;1.70;;
57375;SDS011;44805;45.048;5.062;2022-09-09T06:54:24;5.82;;;1.70;;
57375;SDS011;44805;45.048;5.062;2022-09-09T06:57:03;4.30;;;1.88;;
57375;SDS011;44805;45.048;5.062;2022-09-09T06:59:34;5.50;;;1.90;;
57375;SDS011;44805;45.048;5.062;2022-09-09T07:01:59;4.13;;;1.90;;
57375;SDS011;44805;45.048;5.062;2022-09-09T07:04:36;3.40;;;1.80;;
57375;SDS011;44805;45.048;5.062;2022-09-09T07:07:31;3.55;;;1.50;;
57375;SDS011;44805;45.048;5.062;2022-09-09T07:33:22;3.65;;;1.70;;
57375;SDS011;44805;45.048;5.062;2022-09-09T07:39:00;5.05;;;1.77;;
57375;SDS011;44805;45.048;5.062;2022-09-09T07:41:33;7.60;;;2.10;;
57375;SDS011;44805;45.048;5.062;2022-09-09T07:44:16;6.38;;;2.10;;
57375;SDS011;44805;45.048;5.062;2022-09-09T07:46:52;4.18;;;1.92;;
57375;SDS011;44805;45.048;5.062;2022-09-09T07:54:23;5.57;;;2.60;;
57375;SDS011;44805;45.048;5.062;2022-09-09T07:57:09;4.20;;;1.40;;
57375;SDS011;44805;45.048;5.062;2022-09-09T07:59:35;3.30;;;1.70;;
57375;SDS011;44805;45.048;5.062;2022-09-09T08:02:01;3.97;;;1.70;;
57375;SDS011;44805;45.048;5.062;2022-09-09T08:04:28;4.57;;;1.95;;
57375;SDS011;44805;45.048;5.062;2022-09-09T08:06:59;4.47;;;1.60;;
57375;SDS011;44805;45.048;5.062;2022-09-09T08:09:28;4.28;;;1.60;;
57375;SDS011;44805;45.048;5.062;2022-09-09T08:11:56;4.45;;;1.70;;
57375;SDS011;44805;45.048;5.062;2022-09-09T08:14:23;3.45;;;1.73;;
57375;SDS011;44805;45.048;5.062;2022-09-09T08:16:50;5.32;;;2.20;;
57375;SDS011;44805;45.048;5.062;2022-09-09T08:19:19;5.43;;;2.15;;
57375;SDS011;44805;45.048;5.062;2022-09-09T08:21:51;6.20;;;1.85;;
57375;SDS011;44805;45.048;5.062;2022-09-09T08:24:17;3.50;;;1.63;;
57375;SDS011;44805;45.048;5.062;2022-09-09T08:32:54;4.25;;;1.70;;
57375;SDS011;44805;45.048;5.062;2022-09-09T08:35:20;3.05;;;1.30;;
57375;SDS011;44805;45.048;5.062;2022-09-09T08:37:46;4.15;;;1.55;;
57375;SDS011;44805;45.048;5.062;2022-09-09T08:40:20;3.28;;;1.50;;
57375;SDS011;44805;45.048;5.062;2022-09-09T08:46:27;3.28;;;1.13;;
57375;SDS011;44805;45.048;5.062;2022-09-09T08:49:11;4.65;;;1.42;;
57375;SDS011;44805;45.048;5.062;2022-09-09T08:51:59;2.58;;;0.85;;
57375;SDS011;44805;45.048;5.062;2022-09-09T08:54:30;2.08;;;1.20;;
57375;SDS011;44805;45.048;5.062;2022-09-09T08:59:36;2.63;;;0.80;;
57375;SDS011;44805;45.048;5.062;2022-09-09T09:02:18;1.10;;;0.80;;
57375;SDS011;44805;45.048;5.062;2022-09-09T09:05:31;2.88;;;0.88;;
57375;SDS011;44805;45.048;5.062;2022-09-09T09:19:39;2.23;;;0.90;;
57375;SDS011;44805;45.048;5.062;2022-09-09T09:25:20;2.78;;;0.65;;
57375;SDS011;44805;45.048;5.062;2022-09-09T09:30:42;2.25;;;0.80;;
57375;SDS011;44805;45.048;5.062;2022-09-09T10:53:19;3.65;;;0.60;;
57375;SDS011;44805;45.048;5.062;2022-09-09T10:56:06;1.75;;;0.45;;
57375;SDS011;44805;45.048;5.062;2022-09-09T11:01:40;3.38;;;1.33;;
57375;SDS011;44805;45.048;5.062;2022-09-09T11:15:58;1.27;;;0.63;;
57375;SDS011;44805;45.048;5.062;2022-09-09T11:31:15;1.13;;;0.50;;
57375;SDS011;44805;45.048;5.062;2022-09-09T11:40:09;3.40;;;0.65;;
57375;SDS011;44805;45.048;5.062;2022-09-09T11:42:46;1.65;;;0.70;;
57375;SDS011;44805;45.048;5.062;2022-09-09T11:45:22;2.45;;;0.73;;
57375;SDS011;44805;45.048;5.062;2022-09-09T11:48:21;1.52;;;0.50;;
57375;SDS011;44805;45.048;5.062;2022-09-09T11:51:12;0.70;;;0.40;;
57375;SDS011;44805;45.048;5.062;2022-09-09T11:53:58;2.72;;;0.60;;
57375;SDS011;44805;45.048;5.062;2022-09-09T11:56:31;2.40;;;0.50;;
57375;SDS011;44805;45.048;5.062;2022-09-09T12:10:21;3.95;;;1.77;;
57375;SDS011;44805;45.048;5.062;2022-09-09T12:23:34;2.33;;;0.70;;
57375;SDS011;44805;45.048;5.062;2022-09-09T12:26:28;2.15;;;0.52;;
57375;SDS011;44805;45.048;5.062;2022-09-09T12:37:43;2.45;;;0.68;;
57375;SDS011;44805;45.048;5.062;2022-09-09T12:53:33;2.70;;;0.60;;
57375;SDS011;44805;45.048;5.062;2022-09-09T12:56:07;2.42;;;0.60;;
57375;SDS011;44805;45.048;5.062;2022-09-09T13:01:57;2.75;;;0.68;;
57375;SDS011;44805;45.048;5.062;2022-09-09T13:04:23;1.98;;;0.60;;
57375;SDS011;44805;45.048;5.062;2022-09-09T13:06:49;1.88;;;0.52;;
57375;SDS011;44805;45.048;5.062;2022-09-09T13:09:17;3.50;;;0.98;;
57375;SDS011;44805;45.048;5.062;2022-09-09T13:11:50;0.98;;;0.45;;
57375;SDS011;44805;45.048;5.062;2022-09-09T13:19:53;1.83;;;0.60;;
57375;SDS011;44805;45.048;5.062;2022-09-09T13:25:36;2.25;;;0.60;;
57375;SDS011;44805;45.048;5.062;2022-09-09T14:09:12;1.42;;;0.60;;
57375;SDS011;44805;45.048;5.062;2022-09-09T14:11:40;1.95;;;0.60;;
57375;SDS011;44805;45.048;5.062;2022-09-09T14:17:42;1.90;;;0.43;;
57375;SDS011;44805;45.048;5.062;2022-09-09T14:20:09;1.38;;;0.40;;
57375;SDS011;44805;45.048;5.062;2022-09-09T14:22:36;1.80;;;0.82;;
57375;SDS011;44805;45.048;5.062;2022-09-09T14:25:04;1.05;;;0.95;;
57375;SDS011;44805;45.048;5.062;2022-09-09T14:27:31;2.28;;;0.80;;
57375;SDS011;44805;45.048;5.062;2022-09-09T14:33:20;2.33;;;0.80;;
57375;SDS011;44805;45.048;5.062;2022-09-09T14:35:47;1.88;;;0.47;;
57375;SDS011;44805;45.048;5.062;2022-09-09T14:38:13;1.65;;;0.50;;
57375;SDS011;44805;45.048;5.062;2022-09-09T14:40:44;1.60;;;0.55;;
57375;SDS011;44805;45.048;5.062;2022-09-09T14:43:10;1.38;;;0.40;;
57375;SDS011;44805;45.048;5.062;2022-09-09T14:45:36;2.45;;;0.80;;
57375;SDS011;44805;45.048;5.062;2022-09-09T14:48:03;2.50;;;0.88;;
57375;SDS011;44805;45.048;5.062;2022-09-09T14:50:28;2.60;;;0.77;;
57375;SDS011;44805;45.048;5.062;2022-09-09T14:52:54;2.38;;;0.60;;
57375;SDS011;44805;45.048;5.062;2022-09-09T14:55:20;2.20;;;0.70;;
57375;SDS011;44805;45.048;5.062;2022-09-09T14:57:58;1.33;;;0.45;;
57375;SDS011;44805;45.048;5.062;2022-09-09T15:03:59;0.85;;;0.50;;
57375;SDS011;44805;45.048;5.062;2022-09-09T15:06:34;1.23;;;0.70;;
57375;SDS011;44805;45.048;5.062;2022-09-09T15:09:02;3.80;;;0.70;;
57375;SDS011;44805;45.048;5.062;2022-09-09T15:11:30;1.98;;;0.50;;
57375;SDS011;44805;45.048;5.062;2022-09-09T15:17:30;3.30;;;1.00;;
57375;SDS011;44805;45.048;5.062;2022-09-09T15:20:02;3.28;;;0.80;;
57375;SDS011;44805;45.048;5.062;2022-09-09T15:22:34;1.65;;;0.50;;
57375;SDS011;44805;45.048;5.062;2022-09-09T15:25:02;1.23;;;0.50;;
57375;SDS011;44805;45.048;5.062;2022-09-09T15:27:28;2.65;;;0.65;;
57375;SDS011;44805;45.048;5.062;2022-09-09T15:32:49;1.60;;;0.60;;
57375;SDS011;44805;45.048;5.062;2022-09-09T15:35:15;2.45;;;0.88;;
57375;SDS011;44805;45.048;5.062;2022-09-09T15:37:43;1.58;;;0.50;;
57375;SDS011;44805;45.048;5.062;2022-09-09T15:40:33;2.05;;;0.50;;
57375;SDS011;44805;45.048;5.062;2022-09-09T15:43:04;1.40;;;0.50;;
57375;SDS011;44805;45.048;5.062;2022-09-09T15:45:40;1.02;;;0.43;;
57375;SDS011;44805;45.048;5.062;2022-09-09T15:48:05;1.95;;;0.70;;
57375;SDS011;44805;45.048;5.062;2022-09-09T15:50:33;2.03;;;0.77;;
57375;SDS011;44805;45.048;5.062;2022-09-09T15:55:33;2.83;;;0.60;;
57375;SDS011;44805;45.048;5.062;2022-09-09T15:58:06;3.63;;;0.70;;
57375;SDS011;44805;45.048;5.062;2022-09-09T16:00:32;2.30;;;0.50;;
57375;SDS011;44805;45.048;5.062;2022-09-09T16:03:02;0.95;;;0.40;;
57375;SDS011;44805;45.048;5.062;2022-09-09T16:05:32;0.65;;;0.40;;
57375;SDS011;44805;45.048;5.062;2022-09-09T16:08:01;1.05;;;0.40;;
57375;SDS011;44805;45.048;5.062;2022-09-09T16:10:27;0.93;;;0.45;;
57375;SDS011;44805;45.048;5.062;2022-09-09T16:12:57;2.80;;;0.82;;
57375;SDS011;44805;45.048;5.062;2022-09-09T16:18:21;1.40;;;0.57;;
57375;SDS011;44805;45.048;5.062;2022-09-09T16:20:54;2.97;;;0.60;;
57375;SDS011;44805;45.048;5.062;2022-09-09T16:23:23;3.15;;;0.68;;
57375;SDS011;44805;45.048;5.062;2022-09-09T16:25:56;2.03;;;0.80;;
57375;SDS011;44805;45.048;5.062;2022-09-09T16:31:50;1.17;;;0.70;;
57375;SDS011;44805;45.048;5.062;2022-09-09T16:58:54;2.25;;;0.90;;
57375;SDS011;44805;45.048;5.062;2022-09-09T17:01:29;2.35;;;0.80;;
57375;SDS011;44805;45.048;5.062;2022-09-09T17:04:17;4.40;;;0.85;;
57375;SDS011;44805;45.048;5.062;2022-09-09T17:06:54;3.20;;;0.90;;
57375;SDS011;44805;45.048;5.062;2022-09-09T17:17:03;2.33;;;0.60;;
57375;SDS011;44805;45.048;5.062;2022-09-09T17:19:33;2.40;;;0.75;;
57375;SDS011;44805;45.048;5.062;2022-09-09T17:22:19;1.58;;;0.57;;
57375;SDS011;44805;45.048;5.062;2022-09-09T17:24:53;4.35;;;0.80;;
57375;SDS011;44805;45.048;5.062;2022-09-09T17:27:44;2.53;;;0.73;;
57375;SDS011;44805;45.048;5.062;2022-09-09T17:30:29;2.53;;;1.00;;
57375;SDS011;44805;45.048;5.062;2022-09-09T17:33:02;2.45;;;0.80;;
57375;SDS011;44805;45.048;5.062;2022-09-09T17:35:33;1.67;;;0.75;;
57375;SDS011;44805;45.048;5.062;2022-09-09T17:38:15;1.60;;;0.70;;
57375;SDS011;44805;45.048;5.062;2022-09-09T17:40:45;3.38;;;1.00;;
57375;SDS011;44805;45.048;5.062;2022-09-09T17:43:30;4.18;;;1.00;;
57375;SDS011;44805;45.048;5.062;2022-09-09T17:49:15;2.10;;;0.90;;
57375;SDS011;44805;45.048;5.062;2022-09-09T17:52:06;1.33;;;0.73;;
57375;SDS011;44805;45.048;5.062;2022-09-09T17:54:38;3.70;;;0.90;;
57375;SDS011;44805;45.048;5.062;2022-09-09T17:57:52;2.40;;;1.00;;
57375;SDS011;44805;45.048;5.062;2022-09-09T18:03:52;3.75;;;1.02;;
57375;SDS011;44805;45.048;5.062;2022-09-09T18:06:42;3.58;;;1.00;;
57375;SDS011;44805;45.048;5.062;2022-09-09T18:09:13;2.90;;;1.02;;
57375;SDS011;44805;45.048;5.062;2022-09-09T18:12:09;3.70;;;1.48;;
57375;SDS011;44805;45.048;5.062;2022-09-09T18:18:19;3.20;;;1.30;;
57375;SDS011;44805;45.048;5.062;2022-09-09T18:23:45;3.38;;;1.10;;
57375;SDS011;44805;45.048;5.062;2022-09-09T18:26:38;2.30;;;1.10;;
57375;SDS011;44805;45.048;5.062;2022-09-09T18:35:45;3.75;;;1.33;;
57375;SDS011;44805;45.048;5.062;2022-09-09T18:38:19;2.67;;;1.27;;
57375;SDS011;44805;45.048;5.062;2022-09-09T18:40:48;3.80;;;1.38;;
57375;SDS011;44805;45.048;5.062;2022-09-09T18:43:18;3.58;;;1.00;;
57375;SDS011;44805;45.048;5.062;2022-09-09T18:49:17;3.88;;;1.25;;
57375;SDS011;44805;45.048;5.062;2022-09-09T18:51:48;3.65;;;1.50;;
57375;SDS011;44805;45.048;5.062;2022-09-09T18:54:19;6.57;;;2.08;;
57375;SDS011;44805;45.048;5.062;2022-09-09T18:56:50;5.18;;;2.03;;
57375;SDS011;44805;45.048;5.062;2022-09-09T18:59:21;7.70;;;2.40;;
57375;SDS011;44805;45.048;5.062;2022-09-09T19:01:53;4.63;;;2.03;;
57375;SDS011;44805;45.048;5.062;2022-09-09T19:04:25;4.43;;;1.60;;
57375;SDS011;44805;45.048;5.062;2022-09-09T19:06:53;2.97;;;1.42;;
57375;SDS011;44805;45.048;5.062;2022-09-09T19:09:31;4.20;;;1.52;;
57375;SDS011;44805;45.048;5.062;2022-09-09T19:12:01;5.72;;;1.30;;
57375;SDS011;44805;45.048;5.062;2022-09-09T19:14:38;4.13;;;1.50;;
57375;SDS011;44805;45.048;5.062;2022-09-09T19:17:14;2.13;;;1.02;;
57375;SDS011;44805;45.048;5.062;2022-09-09T19:19:43;4.65;;;1.20;;
57375;SDS011;44805;45.048;5.062;2022-09-09T19:22:41;3.58;;;1.10;;
57375;SDS011;44805;45.048;5.062;2022-09-09T19:25:37;4.20;;;1.25;;
57375;SDS011;44805;45.048;5.062;2022-09-09T19:28:11;2.95;;;1.10;;
57375;SDS011;44805;45.048;5.062;2022-09-09T19:31:00;3.45;;;1.00;;
57375;SDS011;44805;45.048;5.062;2022-09-09T19:33:46;3.05;;;1.00;;
57375;SDS011;44805;45.048;5.062;2022-09-09T19:36:19;2.58;;;0.80;;
57375;SDS011;44805;45.048;5.062;2022-09-09T19:38:53;4.90;;;0.90;;
57375;SDS011;44805;45.048;5.062;2022-09-09T19:41:21;1.95;;;0.90;;
57375;SDS011;44805;45.048;5.062;2022-09-09T19:46:33;1.90;;;0.90;;
57375;SDS011;44805;45.048;5.062;2022-09-09T19:49:16;4.13;;;1.20;;
57375;SDS011;44805;45.048;5.062;2022-09-09T19:51:56;3.85;;;1.10;;
57375;SDS011;44805;45.048;5.062;2022-09-09T19:57:41;2.55;;;0.90;;
57375;SDS011;44805;45.048;5.062;2022-09-09T20:03:30;2.70;;;0.90;;
57375;SDS011;44805;45.048;5.062;2022-09-09T20:06:04;3.38;;;1.00;;
57375;SDS011;44805;45.048;5.062;2022-09-09T20:08:32;2.15;;;1.02;;
57375;SDS011;44805;45.048;5.062;2022-09-09T20:11:05;5.13;;;1.85;;
57375;SDS011;44805;45.048;5.062;2022-09-09T20:13:33;3.08;;;1.05;;
57375;SDS011;44805;45.048;5.062;2022-09-09T20:19:25;1.90;;;0.93;;
57375;SDS011;44805;45.048;5.062;2022-09-09T20:21:50;4.88;;;1.08;;
57375;SDS011;44805;45.048;5.062;2022-09-09T20:24:21;3.40;;;1.10;;
57375;SDS011;44805;45.048;5.062;2022-09-09T20:26:53;3.47;;;1.38;;
57375;SDS011;44805;45.048;5.062;2022-09-09T20:29:28;2.72;;;1.40;;
57375;SDS011;44805;45.048;5.062;2022-09-09T20:32:03;2.72;;;1.23;;
57375;SDS011;44805;45.048;5.062;2022-09-09T20:34:37;5.72;;;1.15;;
57375;SDS011;44805;45.048;5.062;2022-09-09T20:37:25;2.75;;;1.27;;
57375;SDS011;44805;45.048;5.062;2022-09-09T20:39:51;6.05;;;1.48;;
57375;SDS011;44805;45.048;5.062;2022-09-09T20:51:40;2.55;;;1.10;;
57375;SDS011;44805;45.048;5.062;2022-09-09T20:54:09;2.65;;;1.10;;
57375;SDS011;44805;45.048;5.062;2022-09-09T20:56:53;2.70;;;1.10;;
57375;SDS011;44805;45.048;5.062;2022-09-09T20:59:27;5.90;;;1.00;;
57375;SDS011;44805;45.048;5.062;2022-09-09T21:05:21;6.00;;;1.15;;
57375;SDS011;44805;45.048;5.062;2022-09-09T21:07:51;2.90;;;1.27;;
57375;SDS011;44805;45.048;5.062;2022-09-09T21:10:21;2.20;;;0.93;;
57375;SDS011;44805;45.048;5.062;2022-09-09T21:12:47;4.35;;;1.00;;
57375;SDS011;44805;45.048;5.062;2022-09-09T21:18:34;3.88;;;1.00;;
57375;SDS011;44805;45.048;5.062;2022-09-09T21:21:01;3.17;;;0.80;;
57375;SDS011;44805;45.048;5.062;2022-09-09T21:23:29;3.50;;;0.70;;
57375;SDS011;44805;45.048;5.062;2022-09-09T21:25:55;3.50;;;1.00;;
57375;SDS011;44805;45.048;5.062;2022-09-09T21:28:40;4.32;;;1.17;;
57375;SDS011;44805;45.048;5.062;2022-09-09T21:31:06;1.80;;;0.70;;
57375;SDS011;44805;45.048;5.062;2022-09-09T21:33:38;3.35;;;0.90;;
57375;SDS011;44805;45.048;5.062;2022-09-09T21:36:04;1.45;;;0.93;;
57375;SDS011;44805;45.048;5.062;2022-09-09T21:38:30;2.72;;;0.82;;
57375;SDS011;44805;45.048;5.062;2022-09-09T21:41:00;1.92;;;0.90;;
57375;SDS011;44805;45.048;5.062;2022-09-09T21:43:28;3.85;;;1.10;;
57375;SDS011;44805;45.048;5.062;2022-09-09T21:45:54;2.17;;;0.75;;
57375;SDS011;44805;45.048;5.062;2022-09-09T21:48:20;2.58;;;0.85;;
